EA1FFA-1
43.31.53N 005.40.64W
IN73DM aprs.fi
zuletzt gehoert:
2022-10-02T00:31:26Z
zuerst gehoert:
2022-07-26T09:30:53Z

APRS Gijón/Xixón [IN73DM], 2 Stunde(n), EA1FFA-1 [02:46:17, 0s].
EA1FFA 43.31.53N 005.40.64WIN73DM 0.536km 320°NW00:31:26ZMMDVM MMDVM HS Hat 438.8000/438.8000 CC1(3EA1FFA-1)
EA1IEJ 43.31.81N 005.40.64WIN73DM 0.992km 340°NNW00:31:08ZMMDVM DMO 222.3400/222.3400 CC1(3EA1IEJ-11)
MMDVM MMDVM HS Hat 438.8500/438.8500 CC6(2EA1IEJ-1)
EB1TK 43.32.22N 005.42.32WIN73DM 3.102km 303°WNW00:40:17ZWind 227°/000kn, Böen bis 001kn, Temp 18.33c, Regen 0.0mm, letzte 24h 0.0mm, seit 0h 0.0mm, Baro 1028.9h, Hum: 89%(3EB1TK-13)
EA1FPN 43.32.39N 005.42.17WIN73DM 3.115km 310°NW00:30:45ZMMDVM MMDVM HS Hat 439.8750/439.8750 CC1
LEEL 43.32.98N 005.41.71WIN73DN 3.564km 330°NNW00:30:03ZHelipuerto de El Musel: LEAS 012330Z 00000KT 9999 OVC022 18/15 Q1026 NOSIG=
EA4ACU 43.29.56N 005.38.92WIN73EL 3.783km 149°SSE00:31:42ZMMDVM MMDVM HS Hat 432.7000/432.7000 CC1(3EA4ACU-1)
ED1ZAE 43.27.97N 005.40.54WIN73DL 6.189km 182°S00:45:18ZWIDE3-3 ESAS3-3 IN73DL WWW.EA1URG.ORG(3ED1ZAE-3)
2m Voice 145.5875 -0.600 Mhz(2ED1ZAE-C)
EB1GEM 43.30.00N 005.36.07WIN73EM 6.284km 113°ESE00:31:35ZWX3in1Plus2.0 U=13.3V,T=??.?C/??.?F(3EB1GEM-3)
ED1ZAS 43.27.52N 005.40.17WIN73DL 7.024km 178°S00:30:14ZRD985 438.2250/430.6250 CC1
EA1IPU 43.26.21N 005.46.62WIN73CK 12.631km 222°SW00:31:07ZMMDVM MMDVM HS Hat 439.8000/439.8000 CC1(3EA1IPU-1)
EA1JW 43.31.35N 005.28.83WIN73GM 15.524km 90°E00:30:47ZMMDVM MMDVM HS Hat 436.5000/436.5000 CC1(3EA1JW-3)
EA1ABW 43.24.77N 005.47.77WIN73CJ 15.675km 219°SW00:30:24ZMMDVM MMDVM HS Hat 439.8250/439.8250 CC1(3EA1ABW-2)
LEGM 43.26.15N 005.49.84WIN73CK 15.906km 233°SW00:30:02ZHelipuerto de La Morgal (123.500MHz): LEAS 012330Z 00000KT 9999 OVC022 18/15 Q1026 NOSIG=
LEMR 43.25.83N 005.49.60WIN73CK 16.041km 231°SW00:30:03ZAerodromo de la Morgal (123.500MHz): LEAS 012330Z 00000KT 9999 OVC022 18/15 Q1026 NOSIG=
EA1FLQ 43.22.00N 005.36.35WIN73EI 18.095km 163°SSE00:31:32ZMMDVM DVMega 430.9750/430.9750 CC1
EA1AHA 43.32.72N 005.54.38WIN73BN 18.983km 278°W00:32:29ZWind 000°/000kn, Böen bis 000kn, Temp 18.89c, Regen 0.0mm, letzte 24h 0.0mm, seit 0h 0.0mm, Baro 1027.9h, Hum: 78%(3EA1AHA-13)
EA1FHR 43.28.72N 005.26.41WIN73GL 19.376km 104°ESE00:30:58ZMMDVM MMDVM HS Hat 439.1500/439.1500 CC1
EA1HWD 43.28.96N 005.26.30WIN73GL 19.427km 103°ESE00:31:28ZMMDVM MMDVM HS Hat 434.2500/434.2500 CC1
LEHU 43.22.63N 005.49.57WIN73CJ 20.303km 218°SW00:30:02ZHelipuerto del HUCA: LEAS 012330Z 00000KT 9999 OVC022 18/15 Q1026 NOSIG=
ED1ZAY 43.29.47N 005.56.54WIN73AL 21.991km 261°W00:30:10ZRD625 438.3000/430.7000 CC1
ED1ZAU 43.23.04N 005.52.75WIN73BJ 22.637km 227°SW00:30:12ZRD625 438.5000/430.9000 CC1
EA1JBU 43.21.85N 005.51.13WIN73BI 22.742km 220°SW00:32:03ZEA1JBU(3EA1JBU-1)
33D00 43.21.63N 005.51.13WIN73BI 23.049km 219°SW00:01:41Z33-D-00 Protección Civil REMER / Delegación del Gobierno en Asturias
EA1JAY 43.21.54N 005.51.34WIN73BI 23.365km 219°SW00:30:03ZEA1JAY(3EA1JAY-2)
434.525MHz Nodo TETRA DMO(2EA1JAY-4)
EA1HJA 43.21.47N 005.52.09WIN73BI 24.099km 221°SW00:40:02ZEA1HJA@URE.ES(3EA1HJA-2)
IN73FL WX3IN1+ 2.0 - V=13.6V,TX TEMP=45.3C(2EA1HJA)
EA1L 43.20.37N 005.51.13WIN73BI 24.897km 216°SW00:45:04Zea1l@ure.es V=13.0V
Wind 083°/000kn, Böen bis 000kn, Temp 17.78c, Regen 0.0mm, letzte 24h 0.0mm, seit 0h 0.0mm, Baro 1024.6h, Hum: 94%(2EA1L-13)
EA1HWX 43.19.28N 005.50.98WIN73BH 26.475km 213°SSW00:31:54ZDMO - UHF 439.7250/431.0000 CC11(3EA1HWX-2)
MMDVM DMO 222.3400/222.3400 CC1(2EA1HWX-10)
EA1JBE 43.30.90N 005.16.15WIN73IM 32.572km 91°E00:42:56ZDario(3EA1JBE-7)
MAIN QTH http://qrz.com/db/ea1jbe(2EA1JBE-1)
MAIN QTH http://qrz.com/db/ea1jbe(2EA1JBE-13)
EA1IMW 43.14.36N 005.46.93WIN73CF 32.636km 196°SSW00:31:55ZGRUPO RADIO GALENA (GRG) 430.4500/430.4500 CC1(3EA1IMW-1)
EB1DGC 43.12.60N 005.45.59WIN73CF 35.388km 191°S00:30:47ZMMDVM MMDVM HS Hat 433.4500/433.4500 CC1
EA1JBL 43.12.28N 005.47.42WIN73CE 36.513km 195°SSW00:30:27ZMMDVM DVMega 435.3000/435.3000 CC1
EA1HWA 43.12.00N 005.47.40WIN73CE 37.022km 195°SSW00:30:54ZMMDVM MMDVM HS Hat 433.4500/433.4500 CC1
EA1DZR 43.12.88N 005.24.00WIN73HF 40.657km 147°SSE00:30:51ZMMDVM MMDVM HS Hat 432.2000/432.2000 CC2(3EA1DZR-2)
MMDVM DVMega 431.1000/431.1000 CC1(2EA1DZR-1)
MMDVM DV ADER 434.3500/434.3500 CC1(2EA1DZR-4)
440 MMDVM Voice 433.10000MHz +0.0000MHz, APRS for DMRGateway(2EA1DZR-D)
EA1RCG 43.09.45N 005.49.78WIN73CD 42.439km 197°SSW00:30:31ZGRUPO RADIO GALENA (GRG) 430.4500/430.4500 CC1(3EA1RCG-3)
ED1ZAD 43.07.90N 005.38.52WIN73ED 43.446km 177°S00:40:00ZED1ZAD-3 APRS Digi/Igate(3ED1ZAD-3)
EC1KV 43.34.01N 006.16.01WIN63UN 48.108km 276°W00:45:23ZALBUERNE(3EC1KV-1)

aprs.pl 5.0.011w DL3EL © 2006-2021 [5741803]